Fairbanks International, AK

9:25 AM AKST on November 22, 2014 (GMT -0900)
AKDOT Lathrop Street @ 21st Street | Change Station
CLOSE
Current Station
Personal Weather Station
Location: Fairbanks, AK
Elevation: 478 ft
Nearby Weather Stations

Elev 478 ft 64.83 °N, 147.74 °W | Updated 34 minutes ago

Partly Cloudy
Partly Cloudy
6 °F
Feels Like -2 °F
N
4
Wind Variable Wind from NE
Gusts 6.0 mph

Today
High -- | Low -- °F
--% Chance of Precip.
Yesterday
High -- | Low -- °F
Precip. -- in
9:51 AM 3:23 PM
New Moon, 0% visible
Pressure 29.40 in
Visibility 10.0 miles
Clouds Few 3000 ft
Few 5500 ft
Windchill -2 °F
Dew Point -8 °F
Humidity 51%
Rainfall -999.00 in
Snow Depth Not available.
UV 0 out of 12
Pollen Not available.
Air Quality Not available.
Flu Activity Not available.
METAR PAFA 221753Z 07006KT 10SM FEW030 FEW055 M14/M23 A2936 RMK AO2 SLP954 T11441228 11117 21178 53011

More Conditions Fewer Conditions

Pressure 29.40 in
Visibility 10.0 miles
Clouds Few 3000 ft
Few 5500 ft
Windchill -2 °F
Dew Point -8 °F
Humidity 51%
Rainfall -999.00 in
Snow Depth Not available.
UV 0 out of 12
Pollen Not available.
Air Quality Not available.
Flu Activity Not available.
METAR PAFA 221753Z 07006KT 10SM FEW030 FEW055 M14/M23 A2936 RMK AO2 SLP954 T11441228 11117 21178 53011

More Conditions Fewer Conditions

10-Day Weather Forecast

Almanac

Astronomy

Nov. 22, 2014 Rise Set
Actual Time
Civil Twilight
Nautical Twilight
Astronomical Twilight
Moon
Length of Visible Light
Length of Day
Tomorrow will be .
, % of the Moon is Illuminated

Today's Extremes

State Highs State Lows

Community

WunderPhotos

Upload Photos

1,772,872 photos uploaded!

WunderBlogs® & News

Nearby

Air Quality

  Air Quality AQ Index Pollutant
Not available.

Snow Depth

Station Depth Elevation

Earthquake Activity

City Distance Mag. Time & Date
Minimum magnitude displayed is 2.5.

Coastal Water Temperatures

Place Temperature

Nearby Weather Stations